Flight Track Log - Related Links

Times and Time Zones

All times are in EDT time to prevent confusion due to time zone crossing. See the N5089N flight status page for this flight to view local times or setup timezone preferences in your user account.

Time Position Orientation Groundspeed Altitude Reporting Facility
EDT Latitude Longitude Course Direction KTS MPH feet Rate Location/Type
Sat 11:34:00 AM 34.0679 -81.1632 305° West  Level Estimated
Sat 11:35:00 AM 34.0873 -81.1968 305° West  Level Estimated
Sat 11:36:00 AM 34.1068 -81.2305 305° West  Level Estimated
Sat 11:37:00 AM 34.1262 -81.2641 305° West  Level Estimated
Sat 11:38:00 AM 34.1456 -81.2978 305° West  Level Estimated
Sat 11:39:00 AM 34.1651 -81.3315 305° West  Level Estimated
Sat 11:40:00 AM 34.1845 -81.3652 305° West  Level Estimated
Sat 11:41:00 AM 34.2039 -81.3989 305° West  Level Estimated
Sat 11:42:00 AM 34.2233 -81.4326 305° West  Level Estimated
Sat 11:43:00 AM 34.2426 -81.4664 305° West  Level Estimated
Sat 11:44:00 AM 34.2620 -81.5002 305° West  Level Estimated
Sat 11:45:00 AM 34.2814 -81.5340 305° West  Level Estimated
Sat 11:46:00 AM 34.3007 -81.5678 305° West  Level Estimated
Sat 11:47:00 AM 34.3201 -81.6016 305° West  Level Estimated
Sat 11:48:00 AM 34.3394 -81.6354 305° West  Level Estimated
Sat 11:49:00 AM 34.3587 -81.6693 305° West  Level Estimated
Sat 11:50:00 AM 34.3780 -81.7031 305° West  Level Estimated
Sat 11:51:00 AM 34.3974 -81.7370 305° West  Level Estimated
Sat 11:52:00 AM 34.4166 -81.7709 305° West  Level Estimated
Sat 11:53:00 AM 34.4359 -81.8048 305° West  Level Estimated
Sat 11:54:00 AM 34.4552 -81.8387 305° West  Level Estimated
Sat 11:55:00 AM 34.4745 -81.8727 305° West  Level Estimated
Sat 11:56:00 AM 34.4938 -81.9066 305° West  Level Estimated
Sat 11:57:00 AM 34.5130 -81.9406 305° West  Level Estimated
Sat 11:58:00 AM 34.5322 -81.9746 305° West  Level Estimated
Sat 11:59:00 AM 34.5515 -82.0086 304° West  Level Estimated
Sat 12:00:00 PM 34.5707 -82.0426 304° West  Level Estimated
Sat 12:01:00 PM 34.5899 -82.0767 304° West  Level Estimated
Sat 12:02:00 PM 34.6091 -82.1107 304° West  Level Estimated
Sat 12:03:00 PM 34.6283 -82.1448 304° West  Level Estimated
Sat 12:04:00 PM 34.6475 -82.1789 304° West  Level Estimated
Sat 12:05:00 PM 34.6666 -82.2130 304° West  Level Estimated
Sat 12:06:00 PM 34.6858 -82.2471 304° West  Level Estimated
Sat 12:07:00 PM 34.7050 -82.2812 304° West  Level Estimated
Sat 12:08:00 PM 34.7241 -82.3154 304° West  Level Estimated
Sat 12:09:00 PM 34.7433 -82.3495 304° West  Level Estimated
Sat 12:10:00 PM 34.7583 -82.3764 304° West  Level Estimated
Sat 12:11:00 PM 34.7583 -82.3764 148° Southeast  Level Estimated
Sat 12:12:00 PM 34.7583 -82.3764 148° Southeast  Level Estimated
Sat 12:13:00 PM 34.7583 -82.3764 148° Southeast  Level Estimated
Sat 12:14:00 PM 34.7583 -82.3764 148° Southeast  Level Estimated
Sat 12:15:00 PM 34.7583 -82.3764 148° Southeast  Level Estimated
Sat 12:16:00 PM 34.7583 -82.3764 148° Southeast  Level Estimated
Sat 12:17:00 PM 34.7583 -82.3764 148° Southeast  Level Estimated
Sat 12:18:00 PM 34.7583 -82.3764 148° Southeast  Level Estimated
Sat 12:19:00 PM 34.7583 -82.3764 148° Southeast  Level Estimated
Sat 12:20:00 PM 34.7583 -82.3764 148° Southeast  Level Estimated
Sat 12:21:00 PM 34.7583 -82.3764 148° Southeast  Level Estimated
Sat 12:22:00 PM 34.7583 -82.3764 148° Southeast  Level Estimated
Sat 12:23:00 PM 34.7583 -82.3764 148° Southeast  Level Estimated
Sat 12:24:00 PM 34.7583 -82.3764 148° Southeast  Level Estimated
Sat 12:25:00 PM 34.7583 -82.3764 148° Southeast  Level Estimated

Login

Don't have an account? Register now (free) for customized features, flight alerts, and more!